Time;durP1;ratioP1;P1;durP2;ratioP2;P2;SDS_P1;SDS_P2;PMS_P1;PMS_P2;Temp;Humidity;BMP_temperature;BMP_pressure;BME280_temperature;BME280_humidity;BME280_pressure;Samples;Min_cycle;Max_cycle;Signal;HPM_P1;HPM_P2
2022/11/17 00:01:16;;;;;;;455.43;424.97;;;9.70;24.00;;;;;;5073016;28;20816;-71
2022/11/17 00:03:42;;;;;;;641.10;599.43;;;9.70;23.90;;;;;;5072409;28;20457;-71
2022/11/17 00:06:08;;;;;;;561.00;527.40;;;9.70;24.20;;;;;;5072997;28;20502;-70
2022/11/17 00:08:33;;;;;;;344.90;320.00;;;9.70;24.60;;;;;;5072911;28;20283;-71
2022/11/17 00:11:00;;;;;;;237.87;219.93;;;9.70;24.20;;;;;;5074396;28;20170;-71
2022/11/17 00:16:14;;;;;;;273.80;253.63;;;9.70;24.40;;;;;;5072889;28;20558;-71
2022/11/17 00:21:27;;;;;;;542.10;505.93;;;9.60;24.10;;;;;;5076275;28;21068;-72
2022/11/17 00:23:53;;;;;;;323.87;301.57;;;9.60;23.40;;;;;;5071455;28;20423;-74
2022/11/17 00:26:27;;;;;;;415.50;388.90;;;9.70;23.10;;;;;;5072050;28;20404;-73
2022/11/17 00:28:55;;;;;;;300.77;280.17;;;9.80;23.20;;;;;;5071926;28;20443;-73
2022/11/17 00:34:12;;;;;;;450.70;420.40;;;9.80;23.20;;;;;;5074850;28;20963;-72
2022/11/17 00:36:42;;;;;;;388.97;363.80;;;9.80;23.20;;;;;;5078522;28;20416;-73
2022/11/17 00:39:09;;;;;;;446.53;416.73;;;9.80;23.20;;;;;;5074298;28;20923;-73
2022/11/17 00:41:35;;;;;;;501.97;468.77;;;9.80;23.20;;;;;;5073261;28;20529;-73
2022/11/17 00:44:01;;;;;;;348.80;323.87;;;9.80;23.20;;;;;;5071916;28;20412;-73
2022/11/17 00:46:26;;;;;;;387.97;361.17;;;9.80;23.20;;;;;;5072050;28;20416;-73
2022/11/17 00:48:52;;;;;;;376.90;349.70;;;9.90;23.00;;;;;;5074320;28;20232;-73
2022/11/17 00:51:18;;;;;;;447.47;418.57;;;9.90;22.40;;;;;;5073600;28;20716;-72
2022/11/17 00:53:44;;;;;;;408.93;381.30;;;9.90;22.00;;;;;;5072763;28;20524;-72
2022/11/17 00:56:10;;;;;;;393.33;365.97;;;10.00;21.00;;;;;;5072810;28;20408;-73
2022/11/17 00:58:35;;;;;;;252.23;233.37;;;10.10;20.90;;;;;;5072437;28;20446;-73
2022/11/17 01:01:01;;;;;;;383.63;358.93;;;10.10;21.00;;;;;;5072208;28;20208;-73
2022/11/17 01:03:27;;;;;;;528.93;495.20;;;10.10;20.90;;;;;;5072476;28;20222;-73
2022/11/17 01:05:53;;;;;;;231.77;214.77;;;10.10;21.10;;;;;;5072526;28;20415;-74
2022/11/17 01:08:18;;;;;;;423.13;394.20;;;10.00;20.80;;;;;;5072710;28;20170;-73
2022/11/17 01:10:44;;;;;;;457.50;426.20;;;10.00;21.00;;;;;;5072624;28;20182;-73
2022/11/17 01:13:09;;;;;;;467.97;434.50;;;9.90;21.60;;;;;;5072491;28;20190;-73
2022/11/17 01:15:35;;;;;;;464.97;435.10;;;10.00;20.50;;;;;;5070847;28;20552;-73
2022/11/17 01:18:00;;;;;;;349.50;326.20;;;10.00;21.00;;;;;;5071661;28;20668;-73
2022/11/17 01:20:26;;;;;;;419.57;391.03;;;10.10;20.20;;;;;;5071506;28;20228;-73
2022/11/17 01:22:55;;;;;;;422.70;393.63;;;10.10;20.10;;;;;;5073742;28;20632;-73
2022/11/17 01:25:20;;;;;;;407.13;380.33;;;10.20;20.00;;;;;;5071624;28;20174;-74
2022/11/17 01:27:47;;;;;;;207.73;193.47;;;10.10;19.80;;;;;;5071563;28;20748;-74
2022/11/17 01:30:13;;;;;;;412.40;384.33;;;10.20;19.90;;;;;;5089286;28;20220;-74
2022/11/17 01:32:39;;;;;;;555.90;519.23;;;10.20;19.90;;;;;;5072740;28;20416;-73
2022/11/17 01:35:05;;;;;;;342.37;318.47;;;10.20;19.80;;;;;;5071455;28;20507;-74
2022/11/17 01:37:30;;;;;;;441.27;411.03;;;10.30;19.80;;;;;;5072015;28;20197;-73
2022/11/17 01:39:56;;;;;;;547.07;510.60;;;10.30;19.30;;;;;;5072075;28;20436;-74
2022/11/17 01:42:24;;;;;;;404.80;378.10;;;10.40;19.30;;;;;;5071362;28;20206;-74
2022/11/17 01:44:57;;;;;;;325.80;302.20;;;10.40;18.60;;;;;;5071449;28;20542;-73
2022/11/17 01:47:40;;;;;;;526.87;491.20;;;10.40;18.90;;;;;;5071191;28;20417;-73
2022/11/17 01:50:34;;;;;;;415.23;386.00;;;10.40;18.70;;;;;;5072198;28;20424;-74
2022/11/17 01:53:04;;;;;;;319.10;296.67;;;10.40;18.60;;;;;;5071746;28;20415;-74
2022/11/17 01:55:44;;;;;;;439.73;411.67;;;10.40;18.70;;;;;;5072317;28;20500;-74
2022/11/17 01:58:16;;;;;;;398.97;370.47;;;10.40;18.70;;;;;;5071310;28;20412;-73
2022/11/17 02:00:42;;;;;;;513.97;481.87;;;10.40;18.60;;;;;;5072047;28;20856;-74
2022/11/17 02:03:08;;;;;;;340.90;317.53;;;10.40;18.60;;;;;;5073119;28;20503;-74
2022/11/17 02:05:58;;;;;;;229.37;212.57;;;10.40;18.60;;;;;;5072387;28;20247;-72
2022/11/17 02:08:27;;;;;;;464.33;432.93;;;10.50;18.70;;;;;;5072369;28;20548;-74
2022/11/17 02:10:53;;;;;;;305.57;284.43;;;10.60;18.80;;;;;;5073119;28;20486;-73
2022/11/17 02:13:20;;;;;;;341.47;318.30;;;10.50;18.70;;;;;;5074857;28;20923;-73
2022/11/17 02:15:46;;;;;;;258.50;239.07;;;10.40;18.60;;;;;;5075033;28;20234;-72
2022/11/17 02:18:12;;;;;;;249.07;231.13;;;10.40;18.40;;;;;;5074457;28;20416;-73
2022/11/17 02:21:09;;;;;;;390.90;365.37;;;10.40;18.40;;;;;;5076922;28;21059;-73
2022/11/17 02:24:02;;;;;;;588.70;547.87;;;10.30;18.50;;;;;;5074380;28;20408;-73
2022/11/17 02:26:40;;;;;;;521.97;488.73;;;10.30;18.50;;;;;;5074433;28;20438;-74
2022/11/17 02:29:19;;;;;;;371.07;344.60;;;10.30;18.50;;;;;;5076432;28;20459;-75
2022/11/17 02:31:54;;;;;;;241.17;225.37;;;10.20;18.50;;;;;;5074039;28;20432;-73
2022/11/17 02:34:37;;;;;;;390.60;363.47;;;10.20;18.50;;;;;;5074378;28;20447;-74
2022/11/17 02:37:08;;;;;;;590.50;542.43;;;10.30;17.80;;;;;;5073156;28;20420;-74
2022/11/17 02:39:54;;;;;;;440.00;411.57;;;10.30;17.50;;;;;;5076807;28;20436;-74
2022/11/17 02:45:19;;;;;;;384.77;357.00;;;10.20;17.90;;;;;;5074271;28;20826;-74
2022/11/17 02:47:49;;;;;;;454.07;423.20;;;10.10;18.50;;;;;;5076388;28;20873;-74
2022/11/17 02:50:16;;;;;;;379.50;354.50;;;10.10;18.40;;;;;;5074163;28;20436;-74
2022/11/17 02:52:41;;;;;;;289.03;268.00;;;10.10;18.40;;;;;;5074121;28;20416;-74
2022/11/17 02:55:09;;;;;;;394.77;365.30;;;10.00;18.60;;;;;;5074524;28;20990;-73
2022/11/17 02:57:37;;;;;;;202.27;186.50;;;10.00;18.60;;;;;;5074561;28;20181;-73
2022/11/17 03:00:08;;;;;;;615.23;570.43;;;9.90;19.70;;;;;;5074053;28;20436;-73
2022/11/17 03:03:02;;;;;;;472.37;441.03;;;10.10;18.40;;;;;;5074442;28;20467;-74
2022/11/17 03:05:38;;;;;;;245.63;228.57;;;10.20;18.50;;;;;;5066303;28;20432;-75
2022/11/17 03:08:21;;;;;;;427.83;399.17;;;10.30;18.50;;;;;;5076046;28;20775;-74
2022/11/17 03:10:55;;;;;;;336.43;314.60;;;10.30;18.50;;;;;;5072635;28;20845;-73
2022/11/17 03:13:27;;;;;;;335.23;311.83;;;10.40;18.60;;;;;;5074915;28;20411;-72
2022/11/17 03:16:11;;;;;;;426.40;398.23;;;10.40;18.30;;;;;;5073570;28;20914;-74
2022/11/17 03:18:55;;;;;;;337.67;315.73;;;10.40;18.90;;;;;;5074248;28;20480;-71
2022/11/17 03:21:54;;;;;;;440.43;412.37;;;10.50;20.30;;;;;;5074373;28;20824;-71
2022/11/17 03:24:22;;;;;;;394.73;368.90;;;10.40;21.10;;;;;;5064581;28;20489;-71
2022/11/17 03:26:52;;;;;;;489.73;454.90;;;10.30;22.50;;;;;;5073844;28;20907;-70
2022/11/17 03:29:21;;;;;;;219.33;203.13;;;10.20;22.70;;;;;;5073189;28;20456;-72
2022/11/17 03:31:50;;;;;;;392.43;367.10;;;10.20;22.70;;;;;;5075311;28;20424;-72
2022/11/17 03:34:19;;;;;;;250.63;232.47;;;10.10;23.10;;;;;;5074595;28;20408;-71
2022/11/17 03:36:49;;;;;;;225.67;210.00;;;10.10;24.00;;;;;;5073019;28;20446;-71
2022/11/17 03:39:31;;;;;;;316.20;293.03;;;10.10;24.40;;;;;;5074054;28;20428;-71
2022/11/17 03:42:20;;;;;;;354.43;329.97;;;10.10;24.70;;;;;;5073404;28;20528;-71
2022/11/17 03:44:54;;;;;;;353.97;328.97;;;10.10;25.00;;;;;;5070322;28;20428;-71
2022/11/17 03:47:23;;;;;;;442.27;413.80;;;10.00;25.10;;;;;;5073768;28;20415;-72
2022/11/17 03:50:15;;;;;;;333.53;310.73;;;10.00;25.20;;;;;;5072136;28;20432;-71
2022/11/17 03:52:42;;;;;;;486.97;451.87;;;9.90;26.40;;;;;;5073030;28;20426;-71
2022/11/17 03:55:08;;;;;;;553.73;515.30;;;9.90;26.70;;;;;;5072995;28;20878;-72
2022/11/17 03:57:37;;;;;;;336.60;313.47;;;9.80;27.10;;;;;;5073659;28;20503;-72
2022/11/17 04:00:05;;;;;;;467.43;432.77;;;9.80;27.40;;;;;;5072908;28;20432;-72
2022/11/17 04:02:31;;;;;;;294.17;272.27;;;9.80;27.30;;;;;;5073104;28;21001;-72
2022/11/17 04:05:05;;;;;;;296.63;274.67;;;9.80;27.30;;;;;;5071686;28;20428;-72
2022/11/17 04:07:36;;;;;;;371.60;343.93;;;9.80;27.40;;;;;;5072354;28;20173;-71
2022/11/17 04:10:02;;;;;;;495.43;460.77;;;9.80;27.30;;;;;;5073244;28;20434;-72
2022/11/17 04:17:56;;;;;;;382.60;355.33;;;9.90;27.30;;;;;;5073112;28;20427;-72
2022/11/17 04:20:22;;;;;;;352.60;327.50;;;9.90;27.10;;;;;;5073201;28;20448;-72
2022/11/17 04:23:05;;;;;;;260.40;240.80;;;9.90;27.00;;;;;;5072906;28;20618;-72
2022/11/17 04:28:38;;;;;;;523.93;487.80;;;9.90;27.40;;;;;;5073131;28;20423;-72
2022/11/17 04:31:24;;;;;;;452.27;423.03;;;9.80;27.00;;;;;;5071551;28;20936;-72
2022/11/17 04:33:52;;;;;;;504.77;471.60;;;9.80;27.30;;;;;;5070769;28;20458;-72
2022/11/17 04:36:20;;;;;;;570.00;525.03;;;9.80;27.30;;;;;;5072935;28;20412;-72
2022/11/17 04:38:48;;;;;;;218.27;201.77;;;9.80;27.40;;;;;;5073327;28;20444;-71
2022/11/17 04:44:00;;;;;;;402.27;374.50;;;9.80;27.30;;;;;;5074113;28;20467;-71
2022/11/17 04:46:28;;;;;;;471.30;437.13;;;9.80;27.30;;;;;;5073976;28;20895;-71
2022/11/17 04:48:57;;;;;;;356.60;330.47;;;9.80;27.30;;;;;;5072324;28;20458;-72
2022/11/17 04:51:23;;;;;;;482.10;449.97;;;9.80;27.70;;;;;;5071949;28;20412;-71
2022/11/17 04:53:49;;;;;;;454.70;424.90;;;9.80;27.50;;;;;;5072329;28;20420;-71
2022/11/17 04:56:14;;;;;;;516.77;482.03;;;9.80;27.80;;;;;;5072046;28;20785;-72
2022/11/17 04:58:40;;;;;;;426.67;395.77;;;9.80;27.70;;;;;;5072914;28;20444;-71
2022/11/17 05:01:13;;;;;;;668.67;623.40;;;9.70;27.90;;;;;;5071423;28;20619;-72
2022/11/17 05:03:44;;;;;;;276.40;255.77;;;9.70;28.00;;;;;;5073846;28;20428;-72
2022/11/17 05:06:16;;;;;;;502.23;467.40;;;9.70;27.90;;;;;;5071852;28;20495;-72
2022/11/17 05:08:43;;;;;;;324.27;299.07;;;9.80;28.00;;;;;;5070426;28;20868;-72
2022/11/17 05:13:54;;;;;;;401.83;371.70;;;9.80;28.00;;;;;;5072627;28;21118;-71
2022/11/17 05:19:08;;;;;;;425.40;396.33;;;9.90;27.40;;;;;;5073404;28;20204;-71
2022/11/17 05:21:34;;;;;;;451.63;419.20;;;10.00;26.70;;;;;;5072737;28;20505;-72
2022/11/17 05:23:59;;;;;;;462.70;429.77;;;10.00;26.80;;;;;;5071433;28;20420;-72
2022/11/17 05:26:31;;;;;;;428.57;399.70;;;10.10;26.80;;;;;;5070288;28;20451;-72
2022/11/17 05:28:59;;;;;;;460.30;426.47;;;10.10;26.20;;;;;;5095914;22;22024;-69
2022/11/17 05:31:25;;;;;;;427.10;398.57;;;10.10;26.30;;;;;;5054769;28;20822;-69
2022/11/17 05:33:51;;;;;;;417.23;387.27;;;10.20;26.20;;;;;;5076602;28;20499;-68
2022/11/17 05:36:18;;;;;;;502.60;466.87;;;10.20;26.20;;;;;;5075794;28;20447;-69
2022/11/17 05:38:46;;;;;;;445.50;416.13;;;10.10;25.90;;;;;;5073370;28;20419;-70
2022/11/17 05:41:12;;;;;;;339.23;313.93;;;10.20;25.80;;;;;;5073739;28;20459;-69
2022/11/17 05:43:37;;;;;;;527.47;492.07;;;10.20;25.60;;;;;;5073435;28;20499;-71
2022/11/17 05:46:03;;;;;;;489.83;456.37;;;10.20;25.60;;;;;;5077799;28;20565;-70
2022/11/17 05:48:29;;;;;;;567.67;526.63;;;10.20;25.50;;;;;;5060580;28;20182;-71
2022/11/17 05:50:55;;;;;;;335.93;311.93;;;10.10;25.60;;;;;;5077844;28;20201;-70
2022/11/17 05:53:23;;;;;;;343.57;317.13;;;10.00;25.90;;;;;;5062011;28;20416;-71
2022/11/17 05:55:49;;;;;;;579.50;536.70;;;10.00;26.30;;;;;;5079867;28;20419;-71
2022/11/17 05:58:21;;;;;;;228.60;210.00;;;10.00;26.30;;;;;;5077985;28;20848;-70
2022/11/17 06:00:47;;;;;;;613.53;570.97;;;9.90;27.40;;;;;;5078356;28;20228;-70
2022/11/17 06:03:21;;;;;;;401.30;372.47;;;9.80;27.40;;;;;;5082284;28;20446;-71
2022/11/17 06:05:47;;;;;;;396.90;369.20;;;9.70;27.30;;;;;;5079467;28;20400;-69
2022/11/17 06:08:13;;;;;;;423.83;391.50;;;9.60;27.80;;;;;;5078479;28;20420;-70
2022/11/17 06:10:39;;;;;;;417.93;388.10;;;9.50;28.10;;;;;;5076848;28;20190;-70
2022/11/17 06:13:04;;;;;;;314.27;290.20;;;9.50;28.10;;;;;;5075907;28;20791;-70
2022/11/17 06:15:30;;;;;;;608.33;567.17;;;9.50;28.60;;;;;;5057642;28;20177;-71
2022/11/17 06:18:04;;;;;;;393.63;367.40;;;9.50;28.50;;;;;;5075671;28;20605;-70
2022/11/17 06:20:34;;;;;;;414.73;384.57;;;9.60;28.20;;;;;;5076923;28;20443;-70
2022/11/17 06:23:03;;;;;;;277.10;257.80;;;9.60;27.80;;;;;;5077006;28;20416;-70
2022/11/17 06:25:31;;;;;;;598.13;556.17;;;9.70;27.50;;;;;;5057940;28;20937;-70
2022/11/17 06:27:57;;;;;;;461.07;429.53;;;9.80;27.40;;;;;;5077991;28;20502;-70
2022/11/17 06:30:23;;;;;;;409.47;380.03;;;9.80;27.40;;;;;;5078715;28;20455;-71
2022/11/17 06:32:49;;;;;;;440.23;411.60;;;9.90;27.40;;;;;;5062611;28;20460;-71
2022/11/17 06:35:16;;;;;;;369.37;344.53;;;9.90;26.80;;;;;;5076913;28;20189;-70
2022/11/17 06:37:42;;;;;;;525.27;487.17;;;9.90;26.40;;;;;;5077802;28;20465;-70
2022/11/17 06:40:09;;;;;;;467.83;438.83;;;10.00;25.60;;;;;;5078147;28;20431;-71
2022/11/17 06:45:21;;;;;;;409.23;383.50;;;9.90;26.60;;;;;;5079837;28;20437;-69
2022/11/17 06:47:46;;;;;;;240.30;222.77;;;9.80;26.70;;;;;;5078890;28;20420;-70
2022/11/17 06:50:12;;;;;;;707.60;658.83;;;9.80;27.10;;;;;;5078680;28;20586;-71
2022/11/17 06:52:37;;;;;;;350.73;327.27;;;9.70;26.80;;;;;;5077973;28;20611;-70
2022/11/17 06:55:03;;;;;;;310.87;288.73;;;9.70;26.70;;;;;;5079396;28;20701;-69
2022/11/17 06:57:29;;;;;;;504.40;469.83;;;9.80;26.70;;;;;;5060102;28;20239;-70
2022/11/17 06:59:55;;;;;;;372.17;344.90;;;9.80;26.30;;;;;;5061778;28;20494;-71
2022/11/17 07:02:20;;;;;;;697.53;651.20;;;9.80;26.00;;;;;;5078419;28;20201;-70
2022/11/17 07:04:46;;;;;;;323.17;299.23;;;9.80;26.40;;;;;;5060573;28;20178;-70
2022/11/17 07:07:12;;;;;;;656.33;608.37;;;9.70;26.50;;;;;;5077976;28;20170;-70
2022/11/17 07:09:37;;;;;;;330.40;306.37;;;9.70;26.40;;;;;;5077666;28;20561;-69
2022/11/17 07:12:03;;;;;;;344.17;319.03;;;9.80;26.50;;;;;;5072972;28;20493;-70
2022/11/17 07:14:29;;;;;;;315.23;292.50;;;9.90;26.20;;;;;;5060665;28;20194;-70
2022/11/17 07:16:54;;;;;;;521.23;484.90;;;10.10;25.00;;;;;;5061788;28;20253;-69
2022/11/17 07:19:20;;;;;;;569.67;531.03;;;10.20;24.40;;;;;;5075214;28;20684;-69
2022/11/17 07:21:48;;;;;;;260.37;240.93;;;10.30;24.20;;;;;;5075059;28;20214;-70
2022/11/17 07:24:14;;;;;;;405.00;376.07;;;10.40;24.20;;;;;;5075861;28;20174;-68
2022/11/17 07:26:39;;;;;;;393.00;367.23;;;10.40;23.80;;;;;;5068089;28;20455;-69
2022/11/17 07:29:05;;;;;;;312.77;290.87;;;10.50;23.80;;;;;;5059968;28;20259;-69
2022/11/17 07:31:30;;;;;;;399.00;374.10;;;10.50;22.90;;;;;;5057702;28;20182;-69
2022/11/17 07:33:56;;;;;;;501.93;466.20;;;10.60;23.00;;;;;;5074319;28;20585;-68
2022/11/17 07:36:21;;;;;;;497.67;460.73;;;10.70;22.70;;;;;;5056034;28;20269;-70
2022/11/17 07:38:47;;;;;;;526.13;492.30;;;10.90;21.90;;;;;;5073646;28;20632;-70
2022/11/17 07:41:13;;;;;;;513.33;478.90;;;11.10;20.90;;;;;;5073122;28;20245;-70
2022/11/17 07:43:39;;;;;;;458.17;429.07;;;11.10;21.50;;;;;;5072995;28;20177;-70
2022/11/17 07:46:06;;;;;;;509.60;476.87;;;11.10;21.20;;;;;;5073041;28;20439;-71
2022/11/17 07:48:32;;;;;;;419.57;392.67;;;11.20;22.00;;;;;;5072951;28;20404;-71
2022/11/17 07:50:58;;;;;;;414.57;386.23;;;11.20;22.00;;;;;;5073329;28;20919;-71
2022/11/17 07:53:24;;;;;;;450.20;420.53;;;11.30;22.60;;;;;;5051192;28;20430;-71
2022/11/17 07:55:50;;;;;;;481.07;447.43;;;11.20;22.40;;;;;;5035074;28;20493;-70
2022/11/17 07:58:15;;;;;;;395.97;367.47;;;11.30;23.00;;;;;;5052768;28;20835;-70
2022/11/17 08:00:41;;;;;;;599.37;558.83;;;11.30;22.90;;;;;;5052458;28;20230;-70
2022/11/17 08:03:08;;;;;;;443.17;414.20;;;11.20;23.00;;;;;;5068422;28;20193;-71
2022/11/17 08:05:35;;;;;;;565.37;523.27;;;11.20;23.40;;;;;;5058313;28;20183;-71
2022/11/17 08:08:01;;;;;;;617.20;575.90;;;11.20;23.30;;;;;;5052753;28;20432;-68
2022/11/17 08:10:30;;;;;;;376.70;350.10;;;11.10;23.60;;;;;;5071845;28;20929;-67
2022/11/17 08:12:57;;;;;;;607.80;560.60;;;11.10;24.40;;;;;;5072157;28;20799;-68
2022/11/17 08:15:23;;;;;;;483.53;448.50;;;11.10;24.70;;;;;;5073028;28;20409;-68
2022/11/17 08:17:54;;;;;;;413.73;386.13;;;11.00;26.00;;;;;;5071982;28;20442;-68
2022/11/17 08:20:20;;;;;;;446.87;419.20;;;11.00;26.40;;;;;;5052557;28;20198;-68
2022/11/17 08:22:48;;;;;;;617.13;573.00;;;11.00;27.10;;;;;;5060329;28;20493;-68
2022/11/17 08:25:13;;;;;;;185.63;169.63;;;11.00;27.20;;;;;;5060629;28;20835;-68
2022/11/17 08:27:40;;;;;;;511.33;476.67;;;11.00;27.10;;;;;;5052423;28;20511;-69
2022/11/17 08:30:06;;;;;;;588.00;548.10;;;11.00;26.90;;;;;;5055416;28;20291;-68
2022/11/17 08:32:32;;;;;;;594.40;549.97;;;11.10;26.60;;;;;;5052343;28;20420;-69
2022/11/17 08:34:58;;;;;;;427.67;396.80;;;11.10;27.30;;;;;;5041594;28;20804;-72
2022/11/17 08:37:23;;;;;;;496.87;461.93;;;11.20;26.60;;;;;;5055039;28;20176;-69
2022/11/17 08:39:49;;;;;;;374.77;350.27;;;11.20;26.50;;;;;;5054191;28;20214;-69
2022/11/17 08:42:15;;;;;;;744.03;675.43;;;11.20;26.20;;;;;;5071879;28;20210;-69
2022/11/17 08:44:41;;;;;;;450.50;418.53;;;11.20;25.00;;;;;;5067158;28;20184;-69
2022/11/17 08:47:07;;;;;;;528.57;492.63;;;11.20;25.60;;;;;;5060299;28;20413;-69
2022/11/17 08:49:32;;;;;;;382.83;356.20;;;11.20;25.30;;;;;;5039703;28;20208;-69
2022/11/17 08:51:58;;;;;;;297.63;276.43;;;11.20;25.60;;;;;;5071649;28;20178;-69
2022/11/17 08:54:23;;;;;;;614.43;570.97;;;11.20;25.80;;;;;;5060139;28;20215;-69
2022/11/17 08:56:49;;;;;;;329.77;307.87;;;11.30;24.80;;;;;;5051719;28;20285;-69
2022/11/17 08:59:15;;;;;;;632.10;586.27;;;11.40;25.40;;;;;;5068804;28;20427;-69
2022/11/17 09:01:40;;;;;;;496.47;463.03;;;11.40;24.40;;;;;;5071917;28;20212;-69
2022/11/17 09:04:06;;;;;;;401.17;374.43;;;11.40;24.30;;;;;;5059702;28;20191;-69
2022/11/17 09:06:31;;;;;;;449.43;420.53;;;11.40;23.60;;;;;;5036939;28;20687;-69
2022/11/17 09:08:57;;;;;;;342.87;319.47;;;11.50;24.10;;;;;;5051531;28;20249;-69
2022/11/17 09:11:22;;;;;;;475.30;446.33;;;11.50;23.60;;;;;;5051670;28;20191;-69
2022/11/17 09:13:48;;;;;;;464.10;432.53;;;11.50;22.80;;;;;;5038560;28;20209;-69
2022/11/17 09:16:15;;;;;;;539.77;504.60;;;11.60;22.70;;;;;;5071981;28;20188;-69
2022/11/17 09:18:40;;;;;;;223.67;207.30;;;11.60;20.00;;;;;;5071769;28;20261;-69
2022/11/17 09:21:08;;;;;;;615.07;574.17;;;11.60;20.30;;;;;;5072291;28;20556;-69
2022/11/17 09:23:34;;;;;;;483.80;449.73;;;11.60;18.40;;;;;;5038080;28;20186;-69
2022/11/17 09:26:05;;;;;;;583.37;544.27;;;11.70;17.60;;;;;;5073447;28;20511;-69
2022/11/17 09:28:31;;;;;;;400.97;375.23;;;11.50;17.40;;;;;;5075822;28;20410;-69
2022/11/17 09:30:57;;;;;;;419.80;391.63;;;11.50;19.40;;;;;;5075922;28;20810;-69
2022/11/17 09:33:23;;;;;;;506.63;473.70;;;11.50;16.70;;;;;;5076223;28;20601;-69
2022/11/17 09:35:49;;;;;;;397.97;371.90;;;11.50;17.40;;;;;;5041673;28;20421;-69
2022/11/17 09:38:15;;;;;;;631.90;578.90;;;11.40;17.30;;;;;;5056155;28;20187;-68
2022/11/17 09:40:41;;;;;;;681.97;619.27;;;11.40;17.90;;;;;;5037492;28;20923;-69
2022/11/17 09:43:28;;;;;;;437.83;412.47;;;11.40;16.30;;;;;;5037370;28;20609;-69
2022/11/17 09:46:24;;;;;;;562.43;523.13;;;11.50;16.60;;;;;;5037139;28;20424;-69
2022/11/17 09:49:01;;;;;;;661.80;608.83;;;11.40;15.40;;;;;;5070718;28;20431;-69
2022/11/17 09:51:29;;;;;;;349.47;326.63;;;11.40;16.20;;;;;;5074995;28;20789;-69
2022/11/17 09:54:05;;;;;;;466.47;432.87;;;11.30;16.90;;;;;;5074708;28;20417;-69
2022/11/17 09:56:32;;;;;;;465.87;433.73;;;11.40;16.00;;;;;;5074747;28;20417;-69
2022/11/17 09:59:03;;;;;;;543.80;507.53;;;11.60;15.20;;;;;;5070706;28;20483;-69
2022/11/17 10:01:29;;;;;;;514.50;479.03;;;11.60;15.60;;;;;;5056884;28;20464;-70
2022/11/17 10:03:57;;;;;;;562.57;524.57;;;11.70;15.20;;;;;;5074872;28;20400;-69
2022/11/17 10:06:29;;;;;;;182.87;169.33;;;11.70;15.20;;;;;;5061982;28;20417;-69
2022/11/17 10:09:16;;;;;;;284.93;265.53;;;12.00;15.10;;;;;;5054648;28;20483;-69
2022/11/17 10:11:43;;;;;;;455.57;426.80;;;12.10;15.50;;;;;;5071771;28;20436;-69
2022/11/17 10:14:14;;;;;;;410.43;385.13;;;12.00;13.90;;;;;;5074038;28;20465;-69
2022/11/17 10:16:55;;;;;;;822.77;746.90;;;11.90;13.80;;;;;;5074690;28;20473;-69
2022/11/17 10:19:25;;;;;;;376.53;350.70;;;11.70;13.90;;;;;;5074492;28;20439;-69
2022/11/17 10:22:09;;;;;;;402.73;374.67;;;11.50;13.80;;;;;;5069940;28;20477;-69
2022/11/17 10:24:37;;;;;;;424.73;396.37;;;11.50;15.10;;;;;;5054740;28;21206;-69
2022/11/17 10:27:05;;;;;;;385.17;359.73;;;11.40;14.40;;;;;;5054493;28;20411;-69
2022/11/17 10:29:31;;;;;;;347.77;324.63;;;11.50;14.10;;;;;;5037279;28;20546;-69
2022/11/17 10:31:58;;;;;;;435.30;408.10;;;11.40;14.70;;;;;;5073122;28;20823;-70
2022/11/17 10:34:33;;;;;;;473.03;441.20;;;11.40;14.20;;;;;;5074372;28;20425;-69
2022/11/17 10:37:24;;;;;;;519.83;486.57;;;11.40;14.10;;;;;;5046812;28;20425;-69
2022/11/17 10:39:49;;;;;;;358.73;335.03;;;11.40;15.00;;;;;;5054029;28;20434;-70
2022/11/17 10:42:27;;;;;;;380.33;355.60;;;11.40;14.60;;;;;;5053706;28;20460;-71
2022/11/17 10:44:57;;;;;;;517.43;474.47;;;11.40;14.80;;;;;;5054018;28;20184;-70
2022/11/17 10:47:39;;;;;;;376.83;353.10;;;11.40;14.10;;;;;;5065525;28;20455;-69
2022/11/17 10:50:24;;;;;;;475.17;444.43;;;11.50;15.10;;;;;;5073892;28;20438;-70
2022/11/17 10:52:51;;;;;;;519.10;485.33;;;11.60;14.60;;;;;;5073930;28;20422;-70
2022/11/17 10:55:24;;;;;;;505.97;473.53;;;11.70;14.10;;;;;;5074702;28;20475;-70
2022/11/17 10:57:58;;;;;;;262.37;244.23;;;11.70;13.70;;;;;;5054259;28;20768;-70
2022/11/17 11:00:28;;;;;;;535.63;499.63;;;11.80;13.80;;;;;;5073550;28;20500;-70
2022/11/17 11:03:13;;;;;;;493.50;460.17;;;11.90;13.50;;;;;;5073029;28;20548;-69
2022/11/17 11:05:58;;;;;;;300.70;279.83;;;11.90;14.00;;;;;;5055995;28;20432;-69
2022/11/17 11:08:42;;;;;;;369.47;345.20;;;11.70;14.90;;;;;;5073700;28;20494;-69
2022/11/17 11:11:34;;;;;;;487.20;455.60;;;11.60;14.30;;;;;;5041237;28;20485;-69
2022/11/17 11:14:06;;;;;;;374.90;351.97;;;11.50;15.10;;;;;;5035419;28;20516;-69
2022/11/17 11:16:32;;;;;;;314.67;294.27;;;11.50;14.80;;;;;;5035492;28;20421;-69
2022/11/17 11:18:58;;;;;;;289.90;270.83;;;11.50;15.10;;;;;;5053394;28;20511;-69
2022/11/17 11:21:43;;;;;;;487.40;453.43;;;11.50;15.10;;;;;;5058814;28;20203;-69
2022/11/17 11:24:23;;;;;;;656.30;607.37;;;11.60;14.30;;;;;;5061493;28;20632;-69
2022/11/17 11:27:05;;;;;;;411.60;385.57;;;11.60;15.20;;;;;;5041766;28;20463;-69
2022/11/17 11:29:36;;;;;;;327.57;306.13;;;11.60;15.20;;;;;;5037455;28;20469;-69
2022/11/17 11:32:44;;;;;;;374.30;350.03;;;11.80;15.30;;;;;;5054942;28;20470;-69
2022/11/17 11:35:31;;;;;;;230.13;213.47;;;11.90;14.20;;;;;;5055194;28;20416;-69
2022/11/17 11:38:15;;;;;;;416.37;390.57;;;12.10;14.30;;;;;;5071455;28;20419;-69
2022/11/17 11:40:52;;;;;;;518.77;482.30;;;12.30;14.00;;;;;;5052781;28;20436;-69
2022/11/17 11:43:18;;;;;;;414.40;384.07;;;12.40;13.80;;;;;;5050235;28;20519;-69
2022/11/17 11:45:59;;;;;;;426.50;399.10;;;12.50;13.70;;;;;;5073135;28;20507;-70
2022/11/17 11:48:35;;;;;;;373.40;348.77;;;12.50;13.40;;;;;;5074219;28;20196;-70
2022/11/17 11:51:21;;;;;;;1013.77;880.47;;;12.70;13.10;;;;;;5055388;28;20439;-70
2022/11/17 11:54:06;;;;;;;401.80;376.80;;;12.70;12.70;;;;;;5035455;28;20988;-72
2022/11/17 11:56:33;;;;;;;559.17;519.27;;;12.80;11.60;;;;;;5052755;28;20427;-72
2022/11/17 11:59:06;;;;;;;518.17;485.33;;;12.90;12.40;;;;;;5052485;28;20452;-74
2022/11/17 12:02:04;;;;;;;343.80;320.10;;;13.10;11.80;;;;;;5052351;28;20476;-69
2022/11/17 12:04:36;;;;;;;416.83;390.70;;;13.20;11.90;;;;;;5051837;28;20440;-69
2022/11/17 12:07:47;;;;;;;489.03;456.90;;;13.30;11.30;;;;;;5056912;28;20470;-69
2022/11/17 12:10:31;;;;;;;511.47;476.20;;;13.50;10.10;;;;;;5057044;28;20800;-70
2022/11/17 12:12:57;;;;;;;548.10;502.53;;;13.50;9.10;;;;;;5053667;28;20457;-70
2022/11/17 12:15:23;;;;;;;533.23;497.33;;;13.40;9.00;;;;;;5072839;28;20501;-70
2022/11/17 12:18:11;;;;;;;466.73;436.20;;;13.30;9.60;;;;;;5072942;28;20863;-69
2022/11/17 12:20:48;;;;;;;525.80;489.90;;;13.30;9.40;;;;;;5072524;28;20516;-69
2022/11/17 12:23:26;;;;;;;415.23;388.83;;;13.30;9.70;;;;;;5072365;28;20415;-70
2022/11/17 12:25:55;;;;;;;652.43;600.03;;;13.20;9.70;;;;;;5070496;28;20423;-69
2022/11/17 12:28:39;;;;;;;393.50;367.50;;;13.10;9.90;;;;;;5053513;28;20496;-70
2022/11/17 12:31:38;;;;;;;547.87;511.13;;;13.10;10.20;;;;;;5060721;28;20440;-71
2022/11/17 12:34:07;;;;;;;358.10;334.67;;;13.20;10.00;;;;;;5017685;28;20783;-70
2022/11/17 12:36:33;;;;;;;530.40;492.07;;;13.30;10.30;;;;;;5072917;28;20537;-70
2022/11/17 12:39:01;;;;;;;467.37;437.23;;;13.20;9.50;;;;;;5048903;28;20437;-71
2022/11/17 12:41:48;;;;;;;555.80;514.93;;;13.10;10.20;;;;;;5052972;28;20463;-70
2022/11/17 12:44:36;;;;;;;524.33;487.73;;;13.20;9.90;;;;;;5052578;28;20413;-70
2022/11/17 12:47:28;;;;;;;300.37;281.87;;;13.40;10.60;;;;;;5052719;28;20417;-69
2022/11/17 12:50:18;;;;;;;204.80;189.43;;;13.40;10.30;;;;;;5051571;28;20465;-69
2022/11/17 12:52:50;;;;;;;485.47;455.47;;;13.40;10.10;;;;;;5051742;28;20751;-69
2022/11/17 12:55:56;;;;;;;256.97;239.13;;;13.40;9.90;;;;;;5072926;28;20423;-69
2022/11/17 12:58:45;;;;;;;416.17;387.50;;;13.60;9.70;;;;;;5079618;28;20785;-69
2022/11/17 13:01:29;;;;;;;469.63;439.37;;;13.80;9.80;;;;;;5080323;28;20466;-69